createdAt,value
2024-01-06T00:01:25.335Z,6.20
2024-01-06T00:03:52.379Z,6.20
2024-01-06T00:06:20.762Z,6.20
2024-01-06T00:08:49.293Z,6.20
2024-01-06T00:11:16.445Z,6.20
2024-01-06T00:13:43.372Z,6.20
2024-01-06T00:16:10.331Z,6.10
2024-01-06T00:18:37.500Z,6.10
2024-01-06T00:21:04.597Z,6.10
2024-01-06T00:23:32.948Z,6.20
2024-01-06T00:25:59.833Z,6.20
2024-01-06T00:28:26.824Z,6.20
2024-01-06T00:30:54.498Z,6.20
2024-01-06T00:33:22.473Z,6.20
2024-01-06T00:35:49.746Z,6.20
2024-01-06T00:38:16.673Z,6.10
2024-01-06T00:40:44.973Z,6.10
2024-01-06T00:43:11.898Z,6.10
2024-01-06T00:45:39.092Z,6.10
2024-01-06T00:48:07.101Z,6.10
2024-01-06T00:50:34.181Z,6.10
2024-01-06T00:53:01.108Z,6.10
2024-01-06T00:55:28.151Z,6.10
2024-01-06T00:57:56.421Z,6.10
2024-01-06T01:00:23.972Z,6.00
2024-01-06T01:02:50.881Z,6.00
2024-01-06T01:05:17.808Z,6.00
2024-01-06T01:07:44.768Z,6.00
2024-01-06T01:10:11.751Z,5.90
2024-01-06T01:12:38.733Z,6.00
2024-01-06T01:15:08.298Z,6.00
2024-01-06T01:17:35.307Z,6.00
2024-01-06T01:20:02.376Z,6.00
2024-01-06T01:22:29.310Z,6.00
2024-01-06T01:24:56.529Z,6.00
2024-01-06T01:27:24.230Z,6.00
2024-01-06T01:29:53.971Z,6.00
2024-01-06T01:32:22.561Z,6.00
2024-01-06T01:34:49.572Z,5.90
2024-01-06T01:37:16.779Z,5.90
2024-01-06T01:39:43.808Z,5.90
2024-01-06T01:42:10.800Z,5.90
2024-01-06T01:44:37.720Z,5.80
2024-01-06T01:47:06.434Z,5.80
2024-01-06T01:49:34.820Z,5.80
2024-01-06T01:52:01.978Z,5.90
2024-01-06T01:54:29.031Z,5.90
2024-01-06T01:56:56.088Z,5.90
2024-01-06T01:59:23.074Z,5.80
2024-01-06T02:01:50.968Z,5.80
2024-01-06T02:04:18.028Z,5.80
2024-01-06T02:06:46.385Z,5.80
2024-01-06T02:09:13.454Z,5.80
2024-01-06T02:11:40.390Z,5.80
2024-01-06T02:14:07.324Z,5.80
2024-01-06T02:16:34.225Z,5.70
2024-01-06T02:19:01.594Z,5.70
2024-01-06T02:21:29.902Z,5.60
2024-01-06T02:23:58.320Z,5.60
2024-01-06T02:26:25.251Z,5.60
2024-01-06T02:28:52.267Z,5.50
2024-01-06T02:31:19.293Z,5.50
2024-01-06T02:33:46.379Z,5.40
2024-01-06T02:36:13.343Z,5.40
2024-01-06T02:38:40.319Z,5.50
2024-01-06T02:41:08.600Z,5.40
2024-01-06T02:43:35.501Z,5.40
2024-01-06T02:46:02.496Z,5.40
2024-01-06T02:48:31.921Z,5.40
2024-01-06T02:50:59.086Z,5.30
2024-01-06T02:53:26.107Z,5.30
2024-01-06T02:55:53.025Z,5.30
2024-01-06T02:58:21.264Z,5.30
2024-01-06T03:00:48.304Z,5.30
2024-01-06T03:03:15.331Z,5.30
2024-01-06T03:05:42.279Z,5.30
2024-01-06T03:08:09.306Z,5.20
2024-01-06T03:10:37.441Z,5.30
2024-01-06T03:13:04.693Z,5.30
2024-01-06T03:15:33.042Z,5.30
2024-01-06T03:18:00.237Z,5.30
2024-01-06T03:20:27.173Z,5.30
2024-01-06T03:22:54.049Z,5.30
2024-01-06T03:25:21.013Z,5.30
2024-01-06T03:27:47.944Z,5.30
2024-01-06T03:30:15.187Z,5.30
2024-01-06T03:32:43.520Z,5.40
2024-01-06T03:35:10.382Z,5.40
2024-01-06T03:37:37.290Z,5.40
2024-01-06T03:40:05.038Z,5.40
2024-01-06T03:42:32.385Z,5.40
2024-01-06T03:44:59.312Z,5.40
2024-01-06T03:47:26.248Z,5.30
2024-01-06T03:49:54.607Z,5.30
2024-01-06T03:52:21.636Z,5.30
2024-01-06T03:54:48.606Z,5.30
2024-01-06T03:57:15.624Z,5.40
2024-01-06T03:59:43.307Z,5.40
2024-01-06T04:02:10.222Z,5.40
2024-01-06T04:04:37.156Z,5.30
2024-01-06T04:07:06.167Z,5.30
2024-01-06T04:09:33.157Z,5.30
2024-01-06T04:12:01.991Z,5.30
2024-01-06T04:14:28.955Z,5.20
2024-01-06T04:16:57.628Z,5.10
2024-01-06T04:19:25.254Z,5.10
2024-01-06T04:21:52.402Z,5.10
2024-01-06T04:24:20.726Z,5.10
2024-01-06T04:26:48.723Z,5.10
2024-01-06T04:29:15.639Z,5.00
2024-01-06T04:31:42.890Z,5.10
2024-01-06T04:34:10.080Z,5.00
2024-01-06T04:36:37.070Z,5.10
2024-01-06T04:39:04.002Z,5.10
2024-01-06T04:41:32.278Z,5.10
2024-01-06T04:43:59.196Z,5.20
2024-01-06T04:46:26.111Z,5.10
2024-01-06T04:48:53.138Z,5.20
2024-01-06T04:51:20.152Z,5.20
2024-01-06T04:53:47.070Z,5.20
2024-01-06T04:56:14.246Z,5.20
2024-01-06T04:58:42.536Z,5.20
2024-01-06T05:01:09.640Z,5.20
2024-01-06T05:03:36.839Z,5.20
2024-01-06T05:06:04.315Z,5.20
2024-01-06T05:08:33.864Z,5.20
2024-01-06T05:11:01.386Z,5.20
2024-01-06T05:13:28.350Z,5.10
2024-01-06T05:15:56.674Z,5.20
2024-01-06T05:18:23.830Z,5.10
2024-01-06T05:20:50.936Z,5.10
2024-01-06T05:23:18.089Z,5.10
2024-01-06T05:25:45.064Z,5.10
2024-01-06T05:28:11.992Z,5.10
2024-01-06T05:30:39.118Z,5.10
2024-01-06T05:33:14.353Z,5.10
2024-01-06T05:35:41.934Z,5.20
2024-01-06T05:38:09.048Z,5.30
2024-01-06T05:40:36.011Z,5.30
2024-01-06T05:43:03.051Z,5.30
2024-01-06T05:45:31.529Z,5.30
2024-01-06T05:47:59.158Z,5.30
2024-01-06T05:50:27.515Z,5.30
2024-01-06T05:52:54.451Z,5.20
2024-01-06T05:55:22.208Z,5.10
2024-01-06T05:57:49.236Z,5.10
2024-01-06T06:00:17.284Z,5.00
2024-01-06T06:02:44.249Z,5.10
2024-01-06T06:05:11.367Z,5.10
2024-01-06T06:07:40.959Z,5.10
2024-01-06T06:10:10.029Z,5.00
2024-01-06T06:12:37.726Z,5.00
2024-01-06T06:15:05.586Z,5.10
2024-01-06T06:17:32.720Z,5.10
2024-01-06T06:19:59.822Z,5.10
2024-01-06T06:22:31.826Z,5.10
2024-01-06T06:25:00.797Z,5.10
2024-01-06T06:27:28.466Z,5.10
2024-01-06T06:29:55.768Z,5.10
2024-01-06T06:32:22.756Z,5.10
2024-01-06T06:34:49.819Z,5.10
2024-01-06T06:37:17.108Z,5.10
2024-01-06T06:39:46.005Z,5.10
2024-01-06T06:42:14.429Z,5.10
2024-01-06T06:44:41.432Z,5.10
2024-01-06T06:47:08.316Z,5.10
2024-01-06T06:49:35.785Z,5.20
2024-01-06T06:52:04.768Z,5.20
2024-01-06T06:54:32.032Z,5.20
2024-01-06T06:56:59.075Z,5.20
2024-01-06T06:59:27.341Z,5.30
2024-01-06T07:01:54.928Z,5.20
2024-01-06T07:04:21.952Z,5.20
2024-01-06T07:06:48.967Z,5.20
2024-01-06T07:09:15.980Z,5.20
2024-01-06T07:11:42.899Z,5.20
2024-01-06T07:14:09.766Z,5.20
2024-01-06T07:16:38.059Z,5.20
2024-01-06T07:19:06.217Z,5.10
2024-01-06T07:21:33.160Z,5.10
2024-01-06T07:24:00.215Z,5.10
2024-01-06T07:26:27.517Z,5.10
2024-01-06T07:28:54.392Z,5.10
2024-01-06T07:31:21.494Z,5.10
2024-01-06T07:33:49.938Z,5.10
2024-01-06T07:36:18.532Z,5.10
2024-01-06T07:38:47.075Z,5.10
2024-01-06T07:41:13.997Z,5.10
2024-01-06T07:43:41.035Z,5.20
2024-01-06T07:46:08.315Z,5.20
2024-01-06T07:48:35.613Z,5.20
2024-01-06T07:51:04.741Z,5.10
2024-01-06T07:53:31.698Z,5.20
2024-01-06T07:55:58.619Z,5.20
2024-01-06T07:58:25.540Z,5.20
2024-01-06T08:00:52.622Z,5.20
2024-01-06T08:03:19.708Z,5.20
2024-01-06T08:05:47.686Z,5.30
2024-01-06T08:08:17.941Z,5.40
2024-01-06T08:10:45.130Z,5.40
2024-01-06T08:13:12.093Z,5.40
2024-01-06T08:15:39.105Z,5.50
2024-01-06T08:18:06.453Z,5.40
2024-01-06T08:20:33.754Z,5.50
2024-01-06T08:23:00.888Z,5.40
2024-01-06T08:25:29.188Z,5.40
2024-01-06T08:27:56.248Z,5.40
2024-01-06T08:30:24.928Z,5.40
2024-01-06T08:32:53.416Z,5.40
2024-01-06T08:35:20.623Z,5.40
2024-01-06T08:37:47.502Z,5.40
2024-01-06T08:40:14.376Z,5.40
2024-01-06T08:42:42.614Z,5.40
2024-01-06T08:45:10.048Z,5.40
2024-01-06T08:47:36.919Z,5.40
2024-01-06T08:50:05.646Z,5.50
2024-01-06T08:52:32.664Z,5.50
2024-01-06T08:54:59.725Z,5.50
2024-01-06T08:57:26.690Z,5.50
2024-01-06T08:59:55.029Z,5.50
2024-01-06T09:02:22.704Z,5.50
2024-01-06T09:04:49.676Z,5.50
2024-01-06T09:07:18.299Z,5.50
2024-01-06T09:09:45.597Z,5.50
2024-01-06T09:12:12.685Z,5.50
2024-01-06T09:14:39.705Z,5.50
2024-01-06T09:17:08.115Z,5.60
2024-01-06T09:19:35.431Z,5.70
2024-01-06T09:22:02.514Z,5.70
2024-01-06T09:24:29.453Z,5.60
2024-01-06T09:26:56.461Z,5.70
2024-01-06T09:29:23.354Z,5.80
2024-01-06T09:31:50.339Z,5.70
2024-01-06T09:34:18.752Z,5.70
2024-01-06T09:36:46.201Z,5.70
2024-01-06T09:39:13.187Z,5.80
2024-01-06T09:41:40.146Z,5.70
2024-01-06T09:44:07.226Z,5.70
2024-01-06T09:46:36.584Z,5.70
2024-01-06T09:49:03.683Z,5.60
2024-01-06T09:51:32.182Z,5.60
2024-01-06T09:54:00.602Z,5.70
2024-01-06T09:56:29.493Z,5.70
2024-01-06T09:58:56.601Z,5.80
2024-01-06T10:01:23.738Z,5.80
2024-01-06T10:03:51.049Z,5.80
2024-01-06T10:06:19.316Z,5.90
2024-01-06T10:08:49.775Z,5.90
2024-01-06T10:11:16.800Z,6.00
2024-01-06T10:13:46.733Z,6.10
2024-01-06T10:16:14.382Z,6.10
2024-01-06T10:18:41.637Z,6.30
2024-01-06T10:21:08.726Z,6.40
2024-01-06T10:23:35.725Z,6.40
2024-01-06T10:26:05.779Z,6.50
2024-01-06T10:28:33.721Z,6.50
2024-01-06T10:31:01.037Z,6.60
2024-01-06T10:33:28.391Z,6.50
2024-01-06T10:35:56.635Z,6.40
2024-01-06T10:38:23.697Z,6.40
2024-01-06T10:41:00.918Z,6.40
2024-01-06T10:43:35.718Z,6.40
2024-01-06T10:46:05.722Z,6.30
2024-01-06T10:48:37.191Z,6.30
2024-01-06T10:51:08.549Z,6.30
2024-01-06T10:53:38.509Z,6.30
2024-01-06T10:56:07.322Z,6.30
2024-01-06T10:58:39.372Z,6.40
2024-01-06T11:01:06.474Z,6.30
2024-01-06T11:03:33.992Z,6.20
2024-01-06T11:06:01.121Z,6.20
2024-01-06T11:08:29.641Z,6.20
2024-01-06T11:10:56.642Z,6.20
2024-01-06T11:13:24.242Z,6.20
2024-01-06T11:15:54.197Z,6.20
2024-01-06T11:18:35.714Z,6.20
2024-01-06T11:21:22.736Z,6.30
2024-01-06T11:24:21.270Z,6.30
2024-01-06T11:26:52.002Z,6.20
2024-01-06T11:29:20.497Z,6.20
2024-01-06T11:32:22.489Z,6.30
2024-01-06T11:34:50.617Z,6.40
2024-01-06T11:37:19.876Z,6.50
2024-01-06T11:39:47.113Z,6.50
2024-01-06T11:42:15.930Z,6.50
2024-01-06T11:44:46.337Z,6.50
2024-01-06T11:47:14.121Z,6.60
2024-01-06T11:49:45.902Z,6.70
2024-01-06T11:52:13.214Z,6.80
2024-01-06T11:54:41.398Z,6.80
2024-01-06T11:57:08.272Z,6.60
2024-01-06T11:59:35.129Z,6.50
2024-01-06T12:02:02.101Z,6.50
2024-01-06T12:04:30.162Z,6.50
2024-01-06T12:07:08.266Z,6.50
2024-01-06T12:09:35.403Z,6.50
2024-01-06T12:12:03.912Z,6.60
2024-01-06T12:14:31.462Z,6.70
2024-01-06T12:17:03.433Z,6.70
2024-01-06T12:19:31.520Z,6.80
2024-01-06T12:21:58.601Z,6.80
2024-01-06T12:24:29.573Z,6.70
2024-01-06T12:26:58.099Z,6.70
2024-01-06T12:29:29.279Z,6.70
2024-01-06T12:31:56.612Z,6.70
2024-01-06T12:34:24.114Z,6.80
2024-01-06T12:36:54.182Z,6.90
2024-01-06T12:39:21.212Z,6.90
2024-01-06T12:41:49.500Z,6.80
2024-01-06T12:44:16.408Z,6.90
2024-01-06T12:46:43.368Z,6.90
2024-01-06T12:49:11.053Z,6.90
2024-01-06T12:51:38.045Z,6.90
2024-01-06T12:54:05.313Z,7.00
2024-01-06T12:56:32.272Z,7.00
2024-01-06T12:59:00.886Z,7.00
2024-01-06T13:01:27.897Z,7.00
2024-01-06T13:03:55.249Z,6.90
2024-01-06T13:06:22.596Z,6.90
2024-01-06T13:08:50.115Z,6.90
2024-01-06T13:11:17.112Z,6.90
2024-01-06T13:13:44.006Z,7.00
2024-01-06T13:16:12.328Z,6.90
2024-01-06T13:18:39.447Z,6.90
2024-01-06T13:21:07.256Z,6.90
2024-01-06T13:23:34.151Z,6.90
2024-01-06T13:26:01.161Z,6.90
2024-01-06T13:28:28.071Z,6.90
2024-01-06T13:30:55.099Z,6.90
2024-01-06T13:33:24.035Z,6.90
2024-01-06T13:35:51.740Z,6.90
2024-01-06T13:38:18.731Z,6.90
2024-01-06T13:40:45.693Z,6.90
2024-01-06T13:43:16.624Z,6.90
2024-01-06T13:45:45.672Z,6.90
2024-01-06T13:48:12.946Z,6.90
2024-01-06T13:50:41.326Z,6.90
2024-01-06T13:53:08.511Z,6.80
2024-01-06T13:55:35.520Z,6.90
2024-01-06T13:58:02.510Z,6.80
2024-01-06T14:00:29.576Z,6.80
2024-01-06T14:02:57.441Z,6.80
2024-01-06T14:05:25.032Z,6.80
2024-01-06T14:07:53.330Z,6.90
2024-01-06T14:10:20.485Z,6.90
2024-01-06T14:12:47.691Z,6.90
2024-01-06T14:15:14.854Z,6.80
2024-01-06T14:17:42.272Z,6.70
2024-01-06T14:20:10.752Z,6.70
2024-01-06T14:22:38.343Z,6.70
2024-01-06T14:25:07.678Z,6.70
2024-01-06T14:27:35.318Z,6.70
2024-01-06T14:30:02.680Z,6.60
2024-01-06T14:32:30.889Z,6.50
2024-01-06T14:34:57.876Z,6.40
2024-01-06T14:37:24.820Z,6.40
2024-01-06T14:39:51.786Z,6.40
2024-01-06T14:42:20.514Z,6.50
2024-01-06T14:44:47.497Z,6.50
2024-01-06T14:47:14.491Z,6.50
2024-01-06T14:49:41.535Z,6.50
2024-01-06T14:52:08.652Z,6.40
2024-01-06T14:54:36.870Z,6.20
2024-01-06T14:57:03.984Z,6.10
2024-01-06T14:59:33.312Z,6.10
2024-01-06T15:02:00.392Z,6.10
2024-01-06T15:04:29.770Z,6.00
2024-01-06T15:06:57.607Z,6.10
2024-01-06T15:09:26.567Z,6.10
2024-01-06T15:11:53.521Z,6.10
2024-01-06T15:14:20.442Z,6.20
2024-01-06T15:16:48.695Z,6.20
2024-01-06T15:19:15.758Z,6.20
2024-01-06T15:21:43.910Z,6.30
2024-01-06T15:24:11.037Z,6.30
2024-01-06T15:26:38.083Z,6.40
2024-01-06T15:29:05.046Z,6.40
2024-01-06T15:31:32.170Z,6.30
2024-01-06T15:34:00.769Z,6.10
2024-01-06T15:36:27.898Z,6.00
2024-01-06T15:38:54.847Z,6.00
2024-01-06T15:41:21.776Z,6.00
2024-01-06T15:43:48.670Z,6.00
2024-01-06T15:46:16.937Z,6.10
2024-01-06T15:48:44.931Z,6.10
2024-01-06T15:51:13.585Z,6.20
2024-01-06T15:53:41.243Z,6.10
2024-01-06T15:56:08.227Z,6.00
2024-01-06T15:58:35.163Z,5.90
2024-01-06T16:01:02.184Z,5.90
2024-01-06T16:03:29.363Z,6.00
2024-01-06T16:05:56.837Z,6.00
2024-01-06T16:08:25.405Z,6.00
2024-01-06T16:10:52.354Z,6.00
2024-01-06T16:13:19.298Z,5.90
2024-01-06T16:15:46.897Z,5.90
2024-01-06T16:18:14.506Z,5.90
2024-01-06T16:20:41.668Z,5.90
2024-01-06T16:23:11.045Z,5.90
2024-01-06T16:25:39.753Z,5.90
2024-01-06T16:28:07.630Z,5.90
2024-01-06T16:30:34.569Z,5.90
2024-01-06T16:33:01.728Z,5.90
2024-01-06T16:35:28.797Z,5.80
2024-01-06T16:37:55.732Z,5.90
2024-01-06T16:40:22.646Z,5.90
2024-01-06T16:42:53.290Z,5.90
2024-01-06T16:45:20.307Z,5.90
2024-01-06T16:47:47.445Z,5.90
2024-01-06T16:50:14.625Z,5.90
2024-01-06T16:52:41.517Z,5.90
2024-01-06T16:55:09.435Z,6.00
2024-01-06T16:57:36.498Z,6.00
2024-01-06T17:00:06.169Z,6.00
2024-01-06T17:02:33.169Z,5.90
2024-01-06T17:05:00.393Z,5.80
2024-01-06T17:07:27.490Z,5.90
2024-01-06T17:09:56.021Z,5.90
2024-01-06T17:12:23.417Z,5.90
2024-01-06T17:14:50.765Z,5.90
2024-01-06T17:17:19.396Z,5.90
2024-01-06T17:19:46.703Z,5.90
2024-01-06T17:22:13.740Z,5.90
2024-01-06T17:24:40.764Z,5.90
2024-01-06T17:27:07.649Z,5.90
2024-01-06T17:29:34.612Z,5.90
2024-01-06T17:32:01.561Z,5.90
2024-01-06T17:34:30.419Z,5.90
2024-01-06T17:36:57.530Z,5.90
2024-01-06T17:39:24.711Z,5.90
2024-01-06T17:41:57.621Z,5.90
2024-01-06T17:44:27.768Z,5.90
2024-01-06T17:46:54.700Z,5.90
2024-01-06T17:49:22.265Z,5.90
2024-01-06T17:51:51.048Z,5.90
2024-01-06T17:54:18.232Z,5.90
2024-01-06T17:56:45.670Z,5.90
2024-01-06T17:59:13.280Z,6.00
2024-01-06T18:01:40.433Z,6.00
2024-01-06T18:04:07.608Z,6.00
2024-01-06T18:06:34.739Z,6.00
2024-01-06T18:09:03.333Z,6.00
2024-01-06T18:11:30.272Z,6.00
2024-01-06T18:13:57.636Z,6.00
2024-01-06T18:16:24.685Z,6.00
2024-01-06T18:18:53.222Z,6.00
2024-01-06T18:21:20.317Z,6.00
2024-01-06T18:23:47.282Z,6.00
2024-01-06T18:26:17.137Z,6.00
2024-01-06T18:28:44.138Z,6.00
2024-01-06T18:31:11.126Z,6.10
2024-01-06T18:33:39.786Z,6.10
2024-01-06T18:36:08.009Z,6.10
2024-01-06T18:38:35.074Z,6.00
2024-01-06T18:41:02.737Z,6.00
2024-01-06T18:43:31.100Z,6.00
2024-01-06T18:45:58.170Z,6.00
2024-01-06T18:48:25.439Z,6.00
2024-01-06T18:50:52.391Z,6.00
2024-01-06T18:53:20.748Z,6.00
2024-01-06T18:55:47.651Z,6.00
2024-01-06T18:58:14.535Z,6.00
2024-01-06T19:00:42.870Z,6.00
2024-01-06T19:03:10.058Z,6.10
2024-01-06T19:05:37.109Z,6.10
2024-01-06T19:08:04.540Z,6.10
2024-01-06T19:10:34.946Z,6.10
2024-01-06T19:13:03.549Z,6.10
2024-01-06T19:15:30.511Z,6.10
2024-01-06T19:17:59.064Z,6.00
2024-01-06T19:20:26.005Z,6.00
2024-01-06T19:23:02.357Z,6.00
2024-01-06T19:25:36.662Z,6.00
2024-01-06T19:30:30.943Z,6.00
2024-01-06T19:32:59.322Z,6.00
2024-01-06T19:35:26.278Z,6.00
2024-01-06T19:37:53.190Z,6.00
2024-01-06T19:40:20.184Z,6.10
2024-01-06T19:42:49.588Z,6.10
2024-01-06T19:45:17.740Z,6.10
2024-01-06T19:47:44.798Z,6.10
2024-01-06T19:50:13.285Z,6.10
2024-01-06T19:52:40.199Z,6.00
2024-01-06T19:55:10.933Z,6.00
2024-01-06T19:57:38.143Z,6.00
2024-01-06T20:00:07.323Z,6.00
2024-01-06T20:02:38.060Z,6.10
2024-01-06T20:05:07.836Z,6.10
2024-01-06T20:07:36.294Z,6.10
2024-01-06T20:12:30.422Z,6.10
2024-01-06T20:14:58.609Z,6.20
2024-01-06T20:17:25.867Z,6.10
2024-01-06T20:19:54.390Z,6.10
2024-01-06T20:22:22.361Z,6.10
2024-01-06T20:24:50.958Z,6.10
2024-01-06T20:27:18.346Z,6.10
2024-01-06T20:29:45.512Z,6.00
2024-01-06T20:32:12.646Z,6.00
2024-01-06T20:34:40.198Z,6.00
2024-01-06T20:37:07.289Z,5.90
2024-01-06T20:39:34.267Z,5.90
2024-01-06T20:42:02.742Z,5.90
2024-01-06T20:44:29.753Z,5.90
2024-01-06T20:46:56.696Z,6.00
2024-01-06T20:49:28.111Z,6.00
2024-01-06T20:51:56.901Z,5.90
2024-01-06T20:54:24.182Z,5.90
2024-01-06T20:56:53.017Z,5.90
2024-01-06T20:59:21.405Z,5.90
2024-01-06T21:01:48.553Z,5.90
2024-01-06T21:04:15.643Z,5.90
2024-01-06T21:06:42.840Z,5.90
2024-01-06T21:09:10.278Z,5.90
2024-01-06T21:11:38.274Z,5.90
2024-01-06T21:14:06.037Z,5.90
2024-01-06T21:16:34.392Z,5.90
2024-01-06T21:19:01.312Z,5.90
2024-01-06T21:21:28.320Z,6.00
2024-01-06T21:23:55.217Z,6.00
2024-01-06T21:26:25.660Z,6.00
2024-01-06T21:28:54.229Z,6.00
2024-01-06T21:31:21.290Z,6.00
2024-01-06T21:33:49.808Z,6.00
2024-01-06T21:36:17.669Z,6.00
2024-01-06T21:38:44.925Z,6.00
2024-01-06T21:41:40.037Z,5.90
2024-01-06T21:44:06.963Z,5.90
2024-01-06T21:46:33.857Z,5.90
2024-01-06T21:49:02.199Z,5.90
2024-01-06T21:51:29.190Z,5.90
2024-01-06T21:53:57.386Z,5.90
2024-01-06T21:56:24.265Z,5.90
2024-01-06T21:58:51.133Z,5.90
2024-01-06T22:01:18.218Z,5.90
2024-01-06T22:03:45.407Z,5.90
2024-01-06T22:06:13.879Z,5.90
2024-01-06T22:08:41.126Z,5.80
2024-01-06T22:11:08.011Z,5.80
2024-01-06T22:13:34.919Z,5.80
2024-01-06T22:16:01.789Z,5.80
2024-01-06T22:18:28.923Z,5.80
2024-01-06T22:20:55.981Z,5.70
2024-01-06T22:23:24.224Z,5.70
2024-01-06T22:25:51.136Z,5.70
2024-01-06T22:28:18.289Z,5.70
2024-01-06T22:30:45.598Z,5.70
2024-01-06T22:33:14.903Z,5.70
2024-01-06T22:35:43.482Z,5.70
2024-01-06T22:38:10.561Z,5.70
2024-01-06T22:40:38.947Z,5.70
2024-01-06T22:43:06.216Z,5.70
2024-01-06T22:45:33.386Z,5.70
2024-01-06T22:48:00.524Z,5.60
2024-01-06T22:50:27.547Z,5.60
2024-01-06T22:52:55.053Z,5.60
2024-01-06T22:55:22.051Z,5.60
2024-01-06T22:57:50.690Z,5.60
2024-01-06T23:00:28.434Z,5.50
2024-01-06T23:02:55.768Z,5.50
2024-01-06T23:05:22.664Z,5.50
2024-01-06T23:07:49.815Z,5.60
2024-01-06T23:10:17.031Z,5.60
2024-01-06T23:12:43.954Z,5.60
2024-01-06T23:15:12.365Z,5.60
2024-01-06T23:17:39.537Z,5.60
2024-01-06T23:20:07.161Z,5.60
2024-01-06T23:22:34.218Z,5.60
2024-01-06T23:25:01.150Z,5.60
2024-01-06T23:27:28.341Z,5.60
2024-01-06T23:29:55.333Z,5.60
2024-01-06T23:32:24.190Z,5.60
2024-01-06T23:34:52.070Z,5.60
2024-01-06T23:37:19.048Z,5.60
2024-01-06T23:39:46.010Z,5.60
2024-01-06T23:42:14.828Z,5.60
2024-01-06T23:44:42.713Z,5.60
2024-01-06T23:47:09.823Z,5.60
2024-01-06T23:49:38.189Z,5.60
2024-01-06T23:52:05.904Z,5.60
2024-01-06T23:54:32.856Z,5.60
2024-01-06T23:56:59.930Z,5.70
2024-01-06T23:59:27.090Z,5.70
